sensor_id;sensor_type;location;lat;lon;timestamp;temperature;humidity
80964;DHT22;70425;59.322;13.486;2023-10-19T00:02:16;2.90;99.90
80964;DHT22;70425;59.322;13.486;2023-10-19T00:05:07;2.80;99.90
80964;DHT22;70425;59.322;13.486;2023-10-19T00:07:57;2.90;99.90
80964;DHT22;70425;59.322;13.486;2023-10-19T00:13:31;2.80;99.90
80964;DHT22;70425;59.322;13.486;2023-10-19T00:16:19;2.80;99.90
80964;DHT22;70425;59.322;13.486;2023-10-19T00:19:09;2.80;99.90
80964;DHT22;70425;59.322;13.486;2023-10-19T00:21:58;2.80;99.90
80964;DHT22;70425;59.322;13.486;2023-10-19T00:24:49;2.80;99.90
80964;DHT22;70425;59.322;13.486;2023-10-19T00:27:37;2.80;99.90
80964;DHT22;70425;59.322;13.486;2023-10-19T00:30:27;2.80;99.90
80964;DHT22;70425;59.322;13.486;2023-10-19T00:33:18;2.80;99.90
80964;DHT22;70425;59.322;13.486;2023-10-19T00:36:09;2.70;99.90
80964;DHT22;70425;59.322;13.486;2023-10-19T00:39:00;2.80;99.90
80964;DHT22;70425;59.322;13.486;2023-10-19T00:41:50;2.80;99.90
80964;DHT22;70425;59.322;13.486;2023-10-19T00:51:58;2.80;99.90
80964;DHT22;70425;59.322;13.486;2023-10-19T00:57:45;2.80;99.90
80964;DHT22;70425;59.322;13.486;2023-10-19T01:00:36;2.70;99.90
80964;DHT22;70425;59.322;13.486;2023-10-19T01:03:26;2.80;99.90
80964;DHT22;70425;59.322;13.486;2023-10-19T01:06:17;2.70;99.90
80964;DHT22;70425;59.322;13.486;2023-10-19T01:11:50;2.60;99.90
80964;DHT22;70425;59.322;13.486;2023-10-19T01:17:26;2.60;99.90
80964;DHT22;70425;59.322;13.486;2023-10-19T01:20:19;2.50;99.90
80964;DHT22;70425;59.322;13.486;2023-10-19T01:23:10;2.50;99.90
80964;DHT22;70425;59.322;13.486;2023-10-19T01:26:05;2.50;99.90
80964;DHT22;70425;59.322;13.486;2023-10-19T01:28:56;2.50;99.90
80964;DHT22;70425;59.322;13.486;2023-10-19T01:31:48;2.50;99.90
80964;DHT22;70425;59.322;13.486;2023-10-19T01:34:40;2.50;99.90
80964;DHT22;70425;59.322;13.486;2023-10-19T01:37:30;2.50;99.90
80964;DHT22;70425;59.322;13.486;2023-10-19T01:40:19;2.40;99.90
80964;DHT22;70425;59.322;13.486;2023-10-19T01:43:08;2.30;99.90
80964;DHT22;70425;59.322;13.486;2023-10-19T01:45:56;2.20;99.90
80964;DHT22;70425;59.322;13.486;2023-10-19T01:48:46;2.20;99.90
80964;DHT22;70425;59.322;13.486;2023-10-19T01:51:37;2.10;99.90
80964;DHT22;70425;59.322;13.486;2023-10-19T01:57:06;1.90;99.90
80964;DHT22;70425;59.322;13.486;2023-10-19T01:59:55;1.90;99.90
80964;DHT22;70425;59.322;13.486;2023-10-19T02:02:44;1.80;99.90
80964;DHT22;70425;59.322;13.486;2023-10-19T02:05:35;1.80;99.90
80964;DHT22;70425;59.322;13.486;2023-10-19T02:08:29;1.80;99.90
80964;DHT22;70425;59.322;13.486;2023-10-19T02:11:20;1.80;99.90
80964;DHT22;70425;59.322;13.486;2023-10-19T02:14:09;1.80;99.90
80964;DHT22;70425;59.322;13.486;2023-10-19T02:17:01;1.80;99.90
80964;DHT22;70425;59.322;13.486;2023-10-19T02:19:51;1.80;99.90
80964;DHT22;70425;59.322;13.486;2023-10-19T02:22:40;1.70;99.90
80964;DHT22;70425;59.322;13.486;2023-10-19T02:25:30;1.70;99.90
80964;DHT22;70425;59.322;13.486;2023-10-19T02:28:19;1.70;99.90
80964;DHT22;70425;59.322;13.486;2023-10-19T02:31:10;1.60;99.90
80964;DHT22;70425;59.322;13.486;2023-10-19T02:34:00;1.60;99.90
80964;DHT22;70425;59.322;13.486;2023-10-19T02:36:49;1.50;99.90
80964;DHT22;70425;59.322;13.486;2023-10-19T02:39:37;1.50;99.90
80964;DHT22;70425;59.322;13.486;2023-10-19T02:42:26;1.40;99.90
80964;DHT22;70425;59.322;13.486;2023-10-19T03:07:20;1.40;99.90
80964;DHT22;70425;59.322;13.486;2023-10-19T03:10:09;1.40;99.90
80964;DHT22;70425;59.322;13.486;2023-10-19T03:13:00;1.40;99.90
80964;DHT22;70425;59.322;13.486;2023-10-19T03:15:50;1.50;99.90
80964;DHT22;70425;59.322;13.486;2023-10-19T03:18:40;1.50;99.90
80964;DHT22;70425;59.322;13.486;2023-10-19T03:21:29;1.50;99.90
80964;DHT22;70425;59.322;13.486;2023-10-19T03:27:07;1.50;99.90
80964;DHT22;70425;59.322;13.486;2023-10-19T03:29:58;1.60;99.90
80964;DHT22;70425;59.322;13.486;2023-10-19T03:32:47;1.60;99.90
80964;DHT22;70425;59.322;13.486;2023-10-19T03:35:37;1.60;99.90
80964;DHT22;70425;59.322;13.486;2023-10-19T03:38:27;1.60;99.90
80964;DHT22;70425;59.322;13.486;2023-10-19T03:46:03;1.50;99.90
80964;DHT22;70425;59.322;13.486;2023-10-19T03:52:43;1.30;99.90
80964;DHT22;70425;59.322;13.486;2023-10-19T03:55:32;1.20;99.90
80964;DHT22;70425;59.322;13.486;2023-10-19T03:58:22;1.20;99.90
80964;DHT22;70425;59.322;13.486;2023-10-19T04:01:11;1.20;99.90
80964;DHT22;70425;59.322;13.486;2023-10-19T04:04:00;1.10;99.90
80964;DHT22;70425;59.322;13.486;2023-10-19T04:06:49;1.10;99.90
80964;DHT22;70425;59.322;13.486;2023-10-19T04:09:38;1.10;99.90
80964;DHT22;70425;59.322;13.486;2023-10-19T04:12:28;1.00;99.90
80964;DHT22;70425;59.322;13.486;2023-10-19T04:15:18;1.00;99.90
80964;DHT22;70425;59.322;13.486;2023-10-19T04:20:48;1.00;99.90
80964;DHT22;70425;59.322;13.486;2023-10-19T04:23:42;0.90;99.90
80964;DHT22;70425;59.322;13.486;2023-10-19T04:26:31;0.90;99.90
80964;DHT22;70425;59.322;13.486;2023-10-19T04:29:22;0.80;99.90
80964;DHT22;70425;59.322;13.486;2023-10-19T04:32:12;0.90;99.90
80964;DHT22;70425;59.322;13.486;2023-10-19T04:35:01;0.90;99.90
80964;DHT22;70425;59.322;13.486;2023-10-19T04:37:51;0.90;99.90
80964;DHT22;70425;59.322;13.486;2023-10-19T04:40:41;0.80;99.90
80964;DHT22;70425;59.322;13.486;2023-10-19T04:43:29;0.80;99.90
80964;DHT22;70425;59.322;13.486;2023-10-19T04:46:17;0.70;99.90
80964;DHT22;70425;59.322;13.486;2023-10-19T04:49:06;0.70;99.90
80964;DHT22;70425;59.322;13.486;2023-10-19T04:51:54;0.70;99.90
80964;DHT22;70425;59.322;13.486;2023-10-19T04:54:42;0.70;99.90
80964;DHT22;70425;59.322;13.486;2023-10-19T05:00:28;0.60;99.90
80964;DHT22;70425;59.322;13.486;2023-10-19T05:03:17;0.60;99.90
80964;DHT22;70425;59.322;13.486;2023-10-19T05:06:06;0.60;99.90
80964;DHT22;70425;59.322;13.486;2023-10-19T05:08:56;0.50;99.90
80964;DHT22;70425;59.322;13.486;2023-10-19T05:11:44;0.50;99.90
80964;DHT22;70425;59.322;13.486;2023-10-19T05:14:33;0.50;99.90
80964;DHT22;70425;59.322;13.486;2023-10-19T05:17:23;0.40;99.90
80964;DHT22;70425;59.322;13.486;2023-10-19T05:20:12;0.30;99.90
80964;DHT22;70425;59.322;13.486;2023-10-19T05:23:01;0.30;99.90
80964;DHT22;70425;59.322;13.486;2023-10-19T05:25:51;0.20;99.90
80964;DHT22;70425;59.322;13.486;2023-10-19T05:28:40;0.20;99.90
80964;DHT22;70425;59.322;13.486;2023-10-19T05:31:30;0.20;99.90
80964;DHT22;70425;59.322;13.486;2023-10-19T05:34:18;0.10;99.90
80964;DHT22;70425;59.322;13.486;2023-10-19T05:37:07;0.20;99.90
80964;DHT22;70425;59.322;13.486;2023-10-19T05:39:56;0.10;99.90
80964;DHT22;70425;59.322;13.486;2023-10-19T05:42:45;0.20;99.90
80964;DHT22;70425;59.322;13.486;2023-10-19T05:45:34;0.10;99.90
80964;DHT22;70425;59.322;13.486;2023-10-19T05:51:09;0.20;99.90
80964;DHT22;70425;59.322;13.486;2023-10-19T05:53:57;0.10;99.90
80964;DHT22;70425;59.322;13.486;2023-10-19T05:56:50;0.00;99.90
80964;DHT22;70425;59.322;13.486;2023-10-19T05:59:39;0.00;99.90
80964;DHT22;70425;59.322;13.486;2023-10-19T06:02:28;0.10;99.90
80964;DHT22;70425;59.322;13.486;2023-10-19T06:05:17;0.00;99.90
80964;DHT22;70425;59.322;13.486;2023-10-19T06:08:07;-0.10;99.90
80964;DHT22;70425;59.322;13.486;2023-10-19T06:10:55;-0.10;99.90
80964;DHT22;70425;59.322;13.486;2023-10-19T06:13:44;-0.10;99.90
80964;DHT22;70425;59.322;13.486;2023-10-19T06:16:33;0.00;99.90
80964;DHT22;70425;59.322;13.486;2023-10-19T06:19:21;0.00;99.90
80964;DHT22;70425;59.322;13.486;2023-10-19T06:22:10;0.00;99.90
80964;DHT22;70425;59.322;13.486;2023-10-19T06:54:53;0.20;99.90
80964;DHT22;70425;59.322;13.486;2023-10-19T07:05:54;0.30;99.90
80964;DHT22;70425;59.322;13.486;2023-10-19T07:08:45;0.40;99.90
80964;DHT22;70425;59.322;13.486;2023-10-19T07:11:34;0.50;99.90
80964;DHT22;70425;59.322;13.486;2023-10-19T07:14:23;0.60;99.90
80964;DHT22;70425;59.322;13.486;2023-10-19T07:17:11;0.60;99.90
80964;DHT22;70425;59.322;13.486;2023-10-19T07:20:00;0.70;99.90
80964;DHT22;70425;59.322;13.486;2023-10-19T07:22:50;0.70;99.90
80964;DHT22;70425;59.322;13.486;2023-10-19T07:25:39;0.70;99.90
80964;DHT22;70425;59.322;13.486;2023-10-19T07:28:31;0.80;99.90
80964;DHT22;70425;59.322;13.486;2023-10-19T07:31:21;0.90;99.90
80964;DHT22;70425;59.322;13.486;2023-10-19T07:48:07;1.20;99.90
80964;DHT22;70425;59.322;13.486;2023-10-19T08:18:29;2.00;99.90
80964;DHT22;70425;59.322;13.486;2023-10-19T08:21:18;2.20;99.90
80964;DHT22;70425;59.322;13.486;2023-10-19T08:27:00;2.20;99.90
80964;DHT22;70425;59.322;13.486;2023-10-19T08:29:48;2.10;99.90
80964;DHT22;70425;59.322;13.486;2023-10-19T08:32:37;2.20;99.90
80964;DHT22;70425;59.322;13.486;2023-10-19T08:35:26;2.40;99.90
80964;DHT22;70425;59.322;13.486;2023-10-19T08:38:15;2.30;99.90
80964;DHT22;70425;59.322;13.486;2023-10-19T08:41:04;2.30;99.90
80964;DHT22;70425;59.322;13.486;2023-10-19T08:48:42;2.70;99.90
80964;DHT22;70425;59.322;13.486;2023-10-19T08:51:31;2.70;99.90
80964;DHT22;70425;59.322;13.486;2023-10-19T08:54:20;2.70;99.90
80964;DHT22;70425;59.322;13.486;2023-10-19T08:57:09;2.90;99.90
80964;DHT22;70425;59.322;13.486;2023-10-19T08:59:58;3.00;99.90
80964;DHT22;70425;59.322;13.486;2023-10-19T09:02:47;3.10;99.90
80964;DHT22;70425;59.322;13.486;2023-10-19T09:05:38;3.30;99.90
80964;DHT22;70425;59.322;13.486;2023-10-19T09:08:28;3.10;99.90
80964;DHT22;70425;59.322;13.486;2023-10-19T09:11:19;2.90;99.90
80964;DHT22;70425;59.322;13.486;2023-10-19T09:14:08;3.00;99.90
80964;DHT22;70425;59.322;13.486;2023-10-19T09:16:58;3.10;99.90
80964;DHT22;70425;59.322;13.486;2023-10-19T09:22:36;3.20;99.90
80964;DHT22;70425;59.322;13.486;2023-10-19T09:28:12;3.20;99.90
80964;DHT22;70425;59.322;13.486;2023-10-19T09:31:01;3.20;99.90
80964;DHT22;70425;59.322;13.486;2023-10-19T09:33:51;3.20;99.90
80964;DHT22;70425;59.322;13.486;2023-10-19T09:36:40;3.20;99.90
80964;DHT22;70425;59.322;13.486;2023-10-19T09:39:31;3.30;99.90
80964;DHT22;70425;59.322;13.486;2023-10-19T09:42:22;3.30;99.90
80964;DHT22;70425;59.322;13.486;2023-10-19T09:47:59;3.10;99.90
80964;DHT22;70425;59.322;13.486;2023-10-19T09:50:53;3.30;99.90
80964;DHT22;70425;59.322;13.486;2023-10-19T09:53:44;3.40;99.90
80964;DHT22;70425;59.322;13.486;2023-10-19T09:56:38;3.40;99.90
80964;DHT22;70425;59.322;13.486;2023-10-19T09:59:31;3.70;99.90
80964;DHT22;70425;59.322;13.486;2023-10-19T10:02:20;3.70;99.90
80964;DHT22;70425;59.322;13.486;2023-10-19T10:05:46;3.80;99.90
80964;DHT22;70425;59.322;13.486;2023-10-19T10:08:39;3.50;99.90
80964;DHT22;70425;59.322;13.486;2023-10-19T10:11:28;3.50;99.90
80964;DHT22;70425;59.322;13.486;2023-10-19T10:14:23;3.50;99.90
80964;DHT22;70425;59.322;13.486;2023-10-19T10:17:17;3.60;99.90
80964;DHT22;70425;59.322;13.486;2023-10-19T10:20:31;3.80;99.90
80964;DHT22;70425;59.322;13.486;2023-10-19T10:23:23;3.70;99.90
80964;DHT22;70425;59.322;13.486;2023-10-19T10:26:14;3.80;99.90
80964;DHT22;70425;59.322;13.486;2023-10-19T10:29:12;3.90;99.90
80964;DHT22;70425;59.322;13.486;2023-10-19T10:32:02;3.80;99.90
80964;DHT22;70425;59.322;13.486;2023-10-19T10:34:52;3.60;99.90
80964;DHT22;70425;59.322;13.486;2023-10-19T10:37:46;3.70;99.90
80964;DHT22;70425;59.322;13.486;2023-10-19T10:40:43;3.80;99.90
80964;DHT22;70425;59.322;13.486;2023-10-19T10:46:20;4.00;99.90
80964;DHT22;70425;59.322;13.486;2023-10-19T10:49:10;4.00;99.90
80964;DHT22;70425;59.322;13.486;2023-10-19T10:51:59;3.90;99.90
80964;DHT22;70425;59.322;13.486;2023-10-19T10:54:47;4.00;99.90
80964;DHT22;70425;59.322;13.486;2023-10-19T10:57:36;4.20;99.90
80964;DHT22;70425;59.322;13.486;2023-10-19T11:00:25;4.20;99.90
80964;DHT22;70425;59.322;13.486;2023-10-19T11:03:14;4.30;99.90
80964;DHT22;70425;59.322;13.486;2023-10-19T11:08:53;4.10;99.90
80964;DHT22;70425;59.322;13.486;2023-10-19T11:11:42;4.10;99.90
80964;DHT22;70425;59.322;13.486;2023-10-19T11:14:31;4.00;99.90
80964;DHT22;70425;59.322;13.486;2023-10-19T11:17:19;4.00;99.90
80964;DHT22;70425;59.322;13.486;2023-10-19T11:20:20;4.00;99.90
80964;DHT22;70425;59.322;13.486;2023-10-19T11:23:01;4.00;99.90
80964;DHT22;70425;59.322;13.486;2023-10-19T11:36:37;3.90;99.90
80964;DHT22;70425;59.322;13.486;2023-10-19T11:39:52;4.00;99.90
80964;DHT22;70425;59.322;13.486;2023-10-19T11:42:45;3.80;99.90
80964;DHT22;70425;59.322;13.486;2023-10-19T12:26:38;3.50;99.90
80964;DHT22;70425;59.322;13.486;2023-10-19T12:32:10;4.10;99.90
80964;DHT22;70425;59.322;13.486;2023-10-19T12:35:00;4.00;99.90
80964;DHT22;70425;59.322;13.486;2023-10-19T12:51:17;3.80;99.90
80964;DHT22;70425;59.322;13.486;2023-10-19T12:56:59;3.70;99.90
80964;DHT22;70425;59.322;13.486;2023-10-19T12:59:47;3.60;99.90
80964;DHT22;70425;59.322;13.486;2023-10-19T13:02:38;3.60;99.90
80964;DHT22;70425;59.322;13.486;2023-10-19T13:05:27;3.60;99.90
80964;DHT22;70425;59.322;13.486;2023-10-19T13:08:16;3.70;99.90
80964;DHT22;70425;59.322;13.486;2023-10-19T13:11:05;3.80;99.90
80964;DHT22;70425;59.322;13.486;2023-10-19T13:16:40;3.80;99.90
80964;DHT22;70425;59.322;13.486;2023-10-19T13:24:43;3.80;99.90
80964;DHT22;70425;59.322;13.486;2023-10-19T13:27:31;3.60;99.90
80964;DHT22;70425;59.322;13.486;2023-10-19T13:30:21;3.50;99.90
80964;DHT22;70425;59.322;13.486;2023-10-19T13:33:11;3.50;99.90
80964;DHT22;70425;59.322;13.486;2023-10-19T13:36:01;3.50;99.90
80964;DHT22;70425;59.322;13.486;2023-10-19T13:38:51;3.60;99.90
80964;DHT22;70425;59.322;13.486;2023-10-19T13:41:39;3.60;99.90
80964;DHT22;70425;59.322;13.486;2023-10-19T13:44:29;3.60;99.90
80964;DHT22;70425;59.322;13.486;2023-10-19T14:00:45;3.70;99.90
80964;DHT22;70425;59.322;13.486;2023-10-19T14:06:22;3.70;99.90
80964;DHT22;70425;59.322;13.486;2023-10-19T14:09:12;3.80;99.90
80964;DHT22;70425;59.322;13.486;2023-10-19T14:12:00;3.80;99.90
80964;DHT22;70425;59.322;13.486;2023-10-19T14:14:51;3.70;99.90
80964;DHT22;70425;59.322;13.486;2023-10-19T14:17:41;3.60;99.90
80964;DHT22;70425;59.322;13.486;2023-10-19T14:20:30;3.50;99.90
80964;DHT22;70425;59.322;13.486;2023-10-19T14:23:21;3.50;99.90
80964;DHT22;70425;59.322;13.486;2023-10-19T14:26:12;3.60;99.90
80964;DHT22;70425;59.322;13.486;2023-10-19T14:32:23;3.60;99.90
80964;DHT22;70425;59.322;13.486;2023-10-19T14:35:12;3.60;99.90
80964;DHT22;70425;59.322;13.486;2023-10-19T14:38:03;3.60;99.90
80964;DHT22;70425;59.322;13.486;2023-10-19T14:40:54;3.50;99.90
80964;DHT22;70425;59.322;13.486;2023-10-19T14:43:42;3.50;99.90
80964;DHT22;70425;59.322;13.486;2023-10-19T14:46:30;3.50;99.90
80964;DHT22;70425;59.322;13.486;2023-10-19T14:52:01;3.50;99.90
80964;DHT22;70425;59.322;13.486;2023-10-19T14:54:49;3.40;99.90
80964;DHT22;70425;59.322;13.486;2023-10-19T14:57:43;3.30;99.90
80964;DHT22;70425;59.322;13.486;2023-10-19T15:00:34;3.20;99.90
80964;DHT22;70425;59.322;13.486;2023-10-19T15:03:26;3.20;99.90
80964;DHT22;70425;59.322;13.486;2023-10-19T15:06:19;3.20;99.90
80964;DHT22;70425;59.322;13.486;2023-10-19T15:09:11;3.20;99.90
80964;DHT22;70425;59.322;13.486;2023-10-19T15:12:07;3.20;99.90
80964;DHT22;70425;59.322;13.486;2023-10-19T15:15:18;3.20;99.90
80964;DHT22;70425;59.322;13.486;2023-10-19T15:18:11;3.20;99.90
80964;DHT22;70425;59.322;13.486;2023-10-19T15:21:08;3.20;99.90
80964;DHT22;70425;59.322;13.486;2023-10-19T15:24:14;3.20;99.90
80964;DHT22;70425;59.322;13.486;2023-10-19T15:27:04;3.10;99.90
80964;DHT22;70425;59.322;13.486;2023-10-19T15:29:53;3.10;99.90
80964;DHT22;70425;59.322;13.486;2023-10-19T15:32:43;3.00;99.90
80964;DHT22;70425;59.322;13.486;2023-10-19T15:38:23;3.00;99.90
80964;DHT22;70425;59.322;13.486;2023-10-19T15:55:38;3.00;99.90
80964;DHT22;70425;59.322;13.486;2023-10-19T16:02:10;2.90;99.90
80964;DHT22;70425;59.322;13.486;2023-10-19T16:04:59;2.70;99.90
80964;DHT22;70425;59.322;13.486;2023-10-19T16:07:47;2.70;99.90
80964;DHT22;70425;59.322;13.486;2023-10-19T16:10:37;2.60;99.90
80964;DHT22;70425;59.322;13.486;2023-10-19T16:13:26;2.60;99.90
80964;DHT22;70425;59.322;13.486;2023-10-19T16:16:15;2.50;99.90
80964;DHT22;70425;59.322;13.486;2023-10-19T16:19:04;2.50;99.90
80964;DHT22;70425;59.322;13.486;2023-10-19T16:21:52;2.40;99.90
80964;DHT22;70425;59.322;13.486;2023-10-19T16:24:49;2.30;99.90
80964;DHT22;70425;59.322;13.486;2023-10-19T17:29:09;1.60;99.90
80964;DHT22;70425;59.322;13.486;2023-10-19T18:44:38;1.30;99.90
80964;DHT22;70425;59.322;13.486;2023-10-19T18:48:15;1.20;99.90
80964;DHT22;70425;59.322;13.486;2023-10-19T19:29:45;1.30;99.90
